KBCT/BCT METAR and TAF weather

Enter ICAO airport designator
Station Type Date Time Source
KBCT METAR 2021/05/12 01:47 UTC NOAA

KBCT 120147Z 14006KT 10SM CLR 28/23 A3007


Station Type Date Time Source
KBCT Decoded METAR 2021/05/12 01:47 UTC NOAA

Boca Raton, Boca Raton Airport, FL, United States (KBCT) 26-22-43N 080-06-28W
May 11, 2021 - 09:47 PM EDT / 2021.05.12 0147 UTC
Wind: from the SE (140 degrees) at 7 MPH (6 KT):0
Visibility: 10 mile(s):0
Sky conditions: clear
Temperature: 82 F (28 C)
Dew Point: 73 F (23 C)
Relative Humidity: 74%
Pressure (altimeter): 30.07 in. Hg (1018 hPa)
ob: KBCT 120147Z 14006KT 10SM CLR 28/23 A3007
cycle: 2

Station Type Date Time Source
KBCT TAF 2020/02/03 18:20 UTC NOAA

TAF KBCT 031720Z 0318/0418 12005KT P6SM SKC
FM040000 VRB03KT P6SM SKC
FM041400 16011KT P6SM FEW030

Example: see airport list